Time;durP1;ratioP1;P1;durP2;ratioP2;P2;SDS_P1;SDS_P2;PMS_P1;PMS_P2;Temp;Humidity;BMP_temperature;BMP_pressure;BME280_temperature;BME280_humidity;BME280_pressure;Samples;Min_cycle;Max_cycle;Signal;HPM_P1;HPM_P2
2023/05/14 00:01:26;;;;;;;12.32;8.57;;;;;;;16.13;63.47;101688.38;3613856;39;20062;-68
2023/05/14 00:03:52;;;;;;;10.07;8.13;;;;;;;16.09;63.38;101683.28;3613705;39;20055;-68
2023/05/14 00:06:18;;;;;;;9.65;8.50;;;;;;;16.05;64.24;101689.91;3613841;39;20050;-68
2023/05/14 00:08:43;;;;;;;9.85;8.68;;;;;;;16.04;63.69;101678.19;3613930;39;20057;-68
2023/05/14 00:11:09;;;;;;;13.27;8.23;;;;;;;16.01;64.55;101673.84;3617253;39;20061;-67
2023/05/14 00:13:35;;;;;;;9.55;8.10;;;;;;;15.98;63.82;101670.47;3615236;39;20047;-67
2023/05/14 00:16:01;;;;;;;9.90;8.55;;;;;;;16.02;63.76;101669.31;3613656;39;20388;-67
2023/05/14 00:18:27;;;;;;;9.52;7.93;;;;;;;16.02;63.83;101670.16;3612808;39;20043;-67
2023/05/14 00:20:53;;;;;;;9.93;8.10;;;;;;;16.02;63.91;101664.75;3612924;39;20042;-68
2023/05/14 00:23:21;;;;;;;9.48;8.10;;;;;;;15.84;64.44;101628.09;3615629;39;20108;-67
2023/05/14 00:25:47;;;;;;;11.95;8.35;;;;;;;16.01;64.42;101670.25;3613067;39;20050;-67
2023/05/14 00:28:12;;;;;;;10.10;7.85;;;;;;;16.00;64.68;101663.97;3615248;39;20070;-67
2023/05/14 00:30:38;;;;;;;10.73;8.75;;;;;;;15.97;64.39;101666.03;3612646;39;20120;-67
2023/05/14 00:33:05;;;;;;;9.63;8.63;;;;;;;15.91;64.32;101664.63;3613104;39;20062;-67
2023/05/14 00:35:30;;;;;;;9.27;8.38;;;;;;;15.87;64.58;101659.56;3613482;39;20047;-67
2023/05/14 00:37:56;;;;;;;12.95;8.63;;;;;;;15.82;64.43;101650.84;3613702;39;20058;-68
2023/05/14 00:40:26;;;;;;;11.90;8.95;;;;;;;15.73;65.39;101642.41;3613753;39;20046;-68
2023/05/14 00:42:53;;;;;;;11.18;9.02;;;;;;;15.53;64.69;101623.94;3614550;39;20282;-68
2023/05/14 00:45:19;;;;;;;9.75;8.80;;;;;;;15.65;65.56;101649.31;3616274;39;20185;-67
2023/05/14 00:47:45;;;;;;;9.82;8.80;;;;;;;15.55;65.56;101647.25;3613982;39;20051;-68
2023/05/14 00:50:14;;;;;;;11.55;10.02;;;;;;;15.50;66.05;101643.09;3615088;39;20042;-68
2023/05/14 00:52:40;;;;;;;13.43;9.00;;;;;;;15.45;66.13;101645.28;3614785;39;20513;-67
2023/05/14 00:55:07;;;;;;;11.43;9.23;;;;;;;15.00;66.73;101574.31;3614522;39;20212;-68
2023/05/14 00:57:36;;;;;;;10.52;9.43;;;;;;;15.27;67.11;101628.44;3614634;39;20321;-68
2023/05/14 01:00:03;;;;;;;11.60;10.40;;;;;;;15.22;67.46;101627.88;3609574;39;20478;-68
2023/05/14 01:02:29;;;;;;;14.85;9.95;;;;;;;15.13;67.40;101620.38;3613063;39;20108;-68
2023/05/14 01:04:56;;;;;;;11.00;10.00;;;;;;;15.17;67.74;101633.63;3605087;39;20058;-68
2023/05/14 01:07:36;;;;;;;13.35;10.55;;;;;;;15.16;67.96;101644.56;3614806;39;20351;-68
2023/05/14 01:10:29;;;;;;;12.27;10.55;;;;;;;15.09;68.68;101635.97;3614940;39;20038;-67
2023/05/14 01:13:17;;;;;;;11.25;10.07;;;;;;;14.90;68.53;101614.69;3615509;39;20383;-68
2023/05/14 01:15:46;;;;;;;12.20;10.75;;;;;;;15.01;68.86;101641.94;3613139;39;20062;-68
2023/05/14 01:18:17;;;;;;;14.63;11.13;;;;;;;14.88;69.05;101616.66;3612866;39;20100;-67
2023/05/14 01:20:44;;;;;;;12.50;11.27;;;;;;;14.90;69.98;101630.94;3614465;39;20062;-67
2023/05/14 01:23:09;;;;;;;14.63;11.63;;;;;;;14.91;69.30;101637.25;3615603;39;20051;-67
2023/05/14 01:25:36;;;;;;;12.43;11.23;;;;;;;14.85;69.54;101641.22;3613667;39;20055;-67
2023/05/14 01:28:22;;;;;;;13.57;12.15;;;;;;;14.82;69.68;101636.03;3616253;39;20070;-67
2023/05/14 01:31:00;;;;;;;12.85;11.45;;;;;;;14.78;70.14;101639.88;3613194;39;20050;-67
2023/05/14 01:33:29;;;;;;;13.23;11.82;;;;;;;14.71;70.04;101631.31;3616868;39;20055;-67
2023/05/14 01:35:57;;;;;;;13.88;11.55;;;;;;;14.70;70.22;101631.41;3614114;39;20058;-67
2023/05/14 01:38:24;;;;;;;13.43;12.10;;;;;;;14.70;71.06;101631.41;3615717;39;20086;-68
2023/05/14 01:40:53;;;;;;;14.98;11.93;;;;;;;14.62;70.86;101621.97;3614432;39;20286;-68
2023/05/14 01:43:20;;;;;;;14.00;11.77;;;;;;;14.65;70.86;101620.03;3614271;39;20321;-67
2023/05/14 01:45:45;;;;;;;14.73;12.38;;;;;;;14.53;71.18;101614.47;3616063;39;20069;-67
2023/05/14 01:48:12;;;;;;;15.68;11.95;;;;;;;14.55;71.27;101623.31;3611916;39;20066;-68
2023/05/14 01:50:37;;;;;;;13.80;12.38;;;;;;;14.49;71.50;101621.00;3616647;39;20081;-68
2023/05/14 01:53:03;;;;;;;14.02;12.52;;;;;;;14.42;71.65;101619.66;3612758;39;20321;-67
2023/05/14 01:55:28;;;;;;;15.88;13.55;;;;;;;14.29;72.05;101602.50;3612661;39;20054;-69
2023/05/14 01:57:54;;;;;;;17.45;13.50;;;;;;;14.44;72.01;101630.41;3612529;39;20396;-68
2023/05/14 02:00:26;;;;;;;13.55;12.02;;;;;;;14.42;72.21;101622.38;3616367;39;20058;-68
2023/05/14 02:02:52;;;;;;;16.17;13.52;;;;;;;14.35;72.39;101623.75;3614784;39;20065;-68
2023/05/14 02:05:17;;;;;;;15.43;13.82;;;;;;;14.32;72.65;101621.25;3612844;39;20059;-68
2023/05/14 02:07:43;;;;;;;15.05;13.02;;;;;;;14.31;72.90;101624.91;3615421;39;20050;-68
2023/05/14 02:10:10;;;;;;;15.60;14.00;;;;;;;14.13;72.87;101595.38;3611056;39;20463;-68
2023/05/14 02:12:36;;;;;;;15.80;14.20;;;;;;;14.23;73.41;101622.69;3613240;39;20089;-68
2023/05/14 02:15:05;;;;;;;17.05;14.23;;;;;;;14.20;72.83;101619.31;3613950;39;20385;-68
2023/05/14 02:17:30;;;;;;;15.65;13.98;;;;;;;14.20;73.59;101616.63;3615382;39;20067;-68
2023/05/14 02:19:56;;;;;;;15.63;14.00;;;;;;;14.12;73.43;101612.59;3613950;39;20051;-69
2023/05/14 02:22:22;;;;;;;16.33;14.63;;;;;;;14.00;74.03;101605.25;3613839;39;20047;-68
2023/05/14 02:24:48;;;;;;;16.85;14.73;;;;;;;14.04;74.78;101619.44;3614078;39;20058;-68
2023/05/14 02:27:14;;;;;;;15.77;14.25;;;;;;;14.03;74.54;101612.31;3616775;39;20263;-69
2023/05/14 02:29:40;;;;;;;19.20;14.43;;;;;;;14.04;74.18;101614.03;3616211;39;20081;-68
2023/05/14 02:32:06;;;;;;;17.23;15.40;;;;;;;14.04;74.89;101619.44;3614645;39;20546;-69
2023/05/14 02:34:33;;;;;;;19.90;15.93;;;;;;;14.04;74.62;101619.44;3613334;39;20042;-69
2023/05/14 02:36:59;;;;;;;16.48;14.60;;;;;;;12.63;74.39;101369.91;3616368;39;20050;-69
2023/05/14 02:39:24;;;;;;;16.08;14.38;;;;;;;14.08;74.57;101611.06;3614729;39;20079;-69
2023/05/14 02:41:50;;;;;;;17.08;15.27;;;;;;;14.11;74.49;101604.56;3615612;39;20389;-68
2023/05/14 02:44:16;;;;;;;15.88;14.25;;;;;;;14.10;74.79;101600.13;3615861;39;20065;-68
2023/05/14 02:46:42;;;;;;;16.15;14.55;;;;;;;13.92;74.36;101572.41;3614382;39;20065;-68
2023/05/14 02:49:08;;;;;;;16.80;15.02;;;;;;;14.14;74.67;101605.25;3612239;39;20130;-69
2023/05/14 02:51:33;;;;;;;17.58;14.52;;;;;;;14.16;74.23;101614.09;3614099;39;20058;-68
2023/05/14 02:53:59;;;;;;;16.20;14.52;;;;;;;14.14;73.91;101610.66;3614377;39;20297;-68
2023/05/14 02:56:25;;;;;;;17.08;15.38;;;;;;;14.13;74.12;101614.31;3615148;39;20050;-68
2023/05/14 02:58:51;;;;;;;18.50;14.98;;;;;;;14.14;73.97;101613.38;3616781;39;20042;-69
2023/05/14 03:01:17;;;;;;;18.52;15.77;;;;;;;14.11;73.79;101615.38;3614619;39;20062;-67
2023/05/14 03:03:43;;;;;;;17.75;15.82;;;;;;;14.10;73.92;101613.63;3613917;39;20047;-67
2023/05/14 03:06:09;;;;;;;18.27;16.25;;;;;;;14.07;74.08;101612.00;3616680;39;20059;-67
2023/05/14 03:08:35;;;;;;;19.50;15.95;;;;;;;14.03;73.96;101605.06;3617751;39;20051;-67
2023/05/14 03:11:01;;;;;;;17.42;15.63;;;;;;;14.00;74.22;101610.66;3615328;39;20363;-67
2023/05/14 03:13:26;;;;;;;18.38;16.48;;;;;;;13.96;74.35;101601.00;3616978;39;20162;-66
2023/05/14 03:15:55;;;;;;;18.35;16.55;;;;;;;13.91;74.45;101600.44;3616210;39;20058;-67
2023/05/14 03:18:21;;;;;;;18.20;16.15;;;;;;;13.89;74.81;101597.84;3614693;39;20047;-67
2023/05/14 03:20:47;;;;;;;18.38;16.38;;;;;;;13.86;75.10;101602.53;3613639;39;20437;-67
2023/05/14 03:23:13;;;;;;;17.80;16.05;;;;;;;13.80;74.97;101595.72;3616154;39;20051;-68
2023/05/14 03:25:39;;;;;;;18.98;16.98;;;;;;;13.76;75.46;101585.19;3617889;39;20083;-67
2023/05/14 03:28:05;;;;;;;18.83;16.83;;;;;;;13.68;75.61;101583.84;3616002;39;20049;-68
2023/05/14 03:30:31;;;;;;;21.15;16.70;;;;;;;13.67;75.42;101587.50;3616656;39;20042;-68
2023/05/14 03:32:58;;;;;;;18.30;16.38;;;;;;;13.62;75.91;101586.06;3613727;39;20051;-68
2023/05/14 03:35:24;;;;;;;19.00;16.95;;;;;;;13.63;75.82;101585.06;3616298;39;20043;-68
2023/05/14 03:37:51;;;;;;;19.45;17.33;;;;;;;13.61;76.25;101585.19;3607397;39;20090;-68
2023/05/14 03:40:17;;;;;;;19.67;17.58;;;;;;;13.58;76.08;101582.69;3617121;39;20058;-68
2023/05/14 03:42:43;;;;;;;19.45;17.38;;;;;;;13.28;76.60;101538.66;3615189;39;20281;-67
2023/05/14 03:45:09;;;;;;;20.10;18.13;;;;;;;13.48;77.02;101586.91;3615317;39;20050;-68
2023/05/14 03:47:35;;;;;;;20.15;17.65;;;;;;;13.46;77.28;101583.44;3614838;39;20404;-67
2023/05/14 03:50:00;;;;;;;20.50;18.30;;;;;;;13.42;77.46;101580.06;3614584;39;20063;-68
2023/05/14 03:52:26;;;;;;;21.27;19.05;;;;;;;13.36;77.94;101579.56;3613736;39;20051;-68
2023/05/14 03:54:51;;;;;;;22.30;19.30;;;;;;;13.30;78.61;101574.53;3616156;39;20115;-68
2023/05/14 03:57:17;;;;;;;20.98;18.77;;;;;;;13.23;78.85;101579.41;3612221;39;20073;-67
2023/05/14 03:59:43;;;;;;;24.67;21.08;;;;;;;13.19;79.04;101584.16;3615034;39;20088;-68
2023/05/14 04:02:08;;;;;;;21.67;19.40;;;;;;;13.12;79.48;101585.44;3614240;39;20380;-68
2023/05/14 04:04:34;;;;;;;21.73;19.42;;;;;;;13.12;79.50;101588.16;3614953;39;20047;-66
2023/05/14 04:06:59;;;;;;;22.10;19.90;;;;;;;13.07;79.73;101584.88;3615993;39;20070;-65
2023/05/14 04:09:25;;;;;;;24.50;21.52;;;;;;;13.01;80.32;101577.16;3613207;39;20385;-65
2023/05/14 04:11:51;;;;;;;23.23;20.17;;;;;;;12.97;80.51;101580.97;3614152;39;20046;-66
2023/05/14 04:14:16;;;;;;;23.60;21.20;;;;;;;12.97;79.98;101578.28;3615238;39;20058;-66
2023/05/14 04:16:42;;;;;;;24.60;21.67;;;;;;;12.76;80.38;101542.66;3614753;39;20075;-66
2023/05/14 04:19:07;;;;;;;24.63;21.98;;;;;;;12.93;80.76;101574.03;3609342;39;20232;-66
2023/05/14 04:21:33;;;;;;;23.98;21.55;;;;;;;12.91;80.80;101584.06;3622050;39;20050;-66
2023/05/14 04:23:58;;;;;;;24.05;21.63;;;;;;;12.90;81.13;101579.59;3616484;39;20055;-66
2023/05/14 04:26:24;;;;;;;23.15;20.85;;;;;;;12.90;81.08;101577.78;3617556;39;20053;-66
2023/05/14 04:28:50;;;;;;;24.75;21.25;;;;;;;12.87;81.38;101569.84;3615904;39;20073;-66
2023/05/14 04:31:15;;;;;;;26.23;21.67;;;;;;;12.84;80.81;101574.56;3613805;39;20065;-66
2023/05/14 04:33:41;;;;;;;23.30;20.75;;;;;;;12.82;81.45;101576.50;3615793;39;20053;-65
2023/05/14 04:36:07;;;;;;;23.40;20.92;;;;;;;12.77;81.07;101577.63;3618185;39;20089;-66
2023/05/14 04:38:33;;;;;;;23.88;20.60;;;;;;;12.55;81.71;101542.09;3614762;39;20127;-66
2023/05/14 04:40:59;;;;;;;25.63;21.95;;;;;;;12.78;81.75;101581.19;3617331;39;20086;-66
2023/05/14 04:43:24;;;;;;;23.70;21.38;;;;;;;12.76;81.60;101559.72;3615467;39;20381;-66
2023/05/14 04:45:51;;;;;;;26.00;21.25;;;;;;;12.61;81.27;101541.72;3618963;39;20042;-66
2023/05/14 04:48:17;;;;;;;26.30;23.52;;;;;;;12.85;81.77;101579.03;3618996;39;20111;-67
2023/05/14 04:50:43;;;;;;;28.52;25.45;;;;;;;12.84;81.75;101577.28;3620656;39;20518;-66
2023/05/14 04:53:09;;;;;;;31.45;27.88;;;;;;;12.57;81.11;101534.78;3619204;39;20171;-67
2023/05/14 04:55:35;;;;;;;40.55;32.92;;;;;;;12.85;81.18;101581.72;3616081;39;20046;-65
2023/05/14 04:58:01;;;;;;;31.13;26.77;;;;;;;12.86;81.13;101586.16;3616909;39;20050;-67
2023/05/14 05:00:28;;;;;;;27.52;22.73;;;;;;;12.82;81.61;101576.50;3616865;39;20058;-66
2023/05/14 05:02:53;;;;;;;26.65;21.77;;;;;;;12.92;80.96;101585.78;3615772;39;20317;-65
2023/05/14 05:05:19;;;;;;;25.75;21.02;;;;;;;12.91;81.47;101584.94;3617182;39;20063;-66
2023/05/14 05:07:45;;;;;;;21.90;19.50;;;;;;;12.92;81.25;101588.50;3616897;39;20054;-66
2023/05/14 05:10:11;;;;;;;22.40;19.70;;;;;;;12.93;80.88;101588.38;3613781;39;20063;-66
2023/05/14 05:12:37;;;;;;;23.20;20.25;;;;;;;12.94;80.87;101592.84;3613158;39;20055;-66
2023/05/14 05:15:04;;;;;;;22.02;19.63;;;;;;;12.90;81.09;101588.56;3618779;39;20053;-66
2023/05/14 05:17:30;;;;;;;24.17;20.42;;;;;;;12.89;80.76;101580.56;3618438;39;20174;-65
2023/05/14 05:19:56;;;;;;;27.25;21.00;;;;;;;12.94;80.83;101581.16;3607109;39;20094;-66
2023/05/14 05:22:23;;;;;;;21.42;19.13;;;;;;;13.00;80.80;101602.38;3617289;39;20061;-66
2023/05/14 05:24:48;;;;;;;22.33;19.27;;;;;;;13.05;80.55;101602.13;3615240;39;20222;-66
2023/05/14 05:27:14;;;;;;;25.63;19.50;;;;;;;13.07;80.54;101598.38;3621254;39;20058;-66
2023/05/14 05:29:40;;;;;;;22.20;19.40;;;;;;;13.09;79.91;101599.13;3616062;39;20343;-66
2023/05/14 05:32:06;;;;;;;21.88;19.67;;;;;;;12.98;80.30;101574.63;3617487;39;20070;-66
2023/05/14 05:34:33;;;;;;;21.40;19.10;;;;;;;13.13;79.86;101600.72;3616707;39;20146;-66
2023/05/14 05:36:58;;;;;;;21.17;18.40;;;;;;;13.17;80.37;101596.84;3617232;39;20107;-66
2023/05/14 05:39:24;;;;;;;20.58;18.38;;;;;;;12.95;79.71;101554.09;3619210;39;20358;-65
2023/05/14 05:41:50;;;;;;;21.98;19.42;;;;;;;13.30;79.74;101596.16;3617590;39;20054;-65
2023/05/14 05:44:15;;;;;;;22.05;19.73;;;;;;;12.64;79.52;101478.66;3609354;39;20127;-65
2023/05/14 05:46:41;;;;;;;22.58;19.00;;;;;;;13.35;79.34;101602.13;3614627;39;20073;-65
2023/05/14 05:49:07;;;;;;;21.00;18.77;;;;;;;13.39;79.44;101598.28;3615466;39;20350;-66
2023/05/14 05:51:32;;;;;;;24.70;18.65;;;;;;;13.41;78.86;101601.75;3615124;39;20047;-64
2023/05/14 05:53:58;;;;;;;20.02;17.90;;;;;;;13.42;78.79;101606.19;3618265;39;20065;-65
2023/05/14 05:56:23;;;;;;;20.80;17.33;;;;;;;13.11;78.78;101540.53;3614561;39;20409;-65
2023/05/14 05:58:49;;;;;;;20.48;18.30;;;;;;;13.53;78.70;101605.53;3614459;39;20081;-65
2023/05/14 06:01:15;;;;;;;19.70;17.60;;;;;;;13.46;78.20;101592.41;3612328;39;20053;-65
2023/05/14 06:03:40;;;;;;;19.80;17.70;;;;;;;13.63;77.75;101604.00;3614651;39;20507;-65
2023/05/14 06:06:06;;;;;;;24.00;17.98;;;;;;;13.70;77.91;101611.63;3617504;39;20046;-65
2023/05/14 06:08:32;;;;;;;20.52;17.73;;;;;;;13.79;77.43;101614.72;3615919;39;20050;-67
2023/05/14 06:10:58;;;;;;;19.85;17.02;;;;;;;13.85;77.08;101622.44;3613509;39;20054;-67
2023/05/14 06:13:23;;;;;;;20.05;16.70;;;;;;;13.88;77.20;101619.53;3607713;39;20054;-67
2023/05/14 06:15:49;;;;;;;22.52;17.58;;;;;;;13.88;76.74;101611.44;3614587;39;20066;-67
2023/05/14 06:18:14;;;;;;;21.90;18.15;;;;;;;13.76;77.06;101583.34;3618684;39;20300;-67
2023/05/14 06:20:40;;;;;;;19.20;17.20;;;;;;;14.03;76.43;101623.97;3617089;39;20432;-67
2023/05/14 06:23:07;;;;;;;21.77;17.05;;;;;;;14.10;76.13;101617.22;3615471;39;20385;-65
2023/05/14 06:25:33;;;;;;;19.38;16.48;;;;;;;14.27;75.58;101637.78;3614404;39;20277;-65
2023/05/14 06:27:58;;;;;;;20.05;16.15;;;;;;;14.32;74.95;101634.75;3606629;39;20050;-64
2023/05/14 06:30:24;;;;;;;17.67;15.88;;;;;;;14.33;74.55;101631.06;3617122;39;20058;-65
2023/05/14 06:32:50;;;;;;;19.60;16.65;;;;;;;14.34;74.65;101636.41;3614625;39;20308;-66
2023/05/14 06:35:17;;;;;;;18.75;16.58;;;;;;;14.35;74.76;101624.59;3617370;39;20090;-64
2023/05/14 06:37:44;;;;;;;19.30;16.77;;;;;;;14.46;74.10;101632.03;3608645;39;20074;-65
2023/05/14 06:40:11;;;;;;;19.77;15.77;;;;;;;14.49;73.88;101634.53;3612482;39;20408;-66
2023/05/14 06:42:37;;;;;;;18.23;16.30;;;;;;;14.56;74.57;101633.19;3613223;39;20061;-65
2023/05/14 06:45:04;;;;;;;17.05;15.38;;;;;;;14.66;74.78;101627.19;3612055;39;20054;-66
2023/05/14 06:47:29;;;;;;;20.20;15.55;;;;;;;14.73;73.99;101629.38;3614548;39;20392;-65
2023/05/14 06:49:57;;;;;;;17.17;15.40;;;;;;;14.84;72.80;101625.94;3614071;39;20055;-65
2023/05/14 06:52:23;;;;;;;20.23;15.45;;;;;;;14.97;72.85;101623.28;3613207;39;21561;-65
2023/05/14 06:54:49;;;;;;;20.20;14.95;;;;;;;15.12;71.88;101618.66;3614346;39;20054;-65
2023/05/14 06:57:15;;;;;;;19.02;15.15;;;;;;;15.15;72.04;101599.50;3614877;39;20070;-67
2023/05/14 06:59:40;;;;;;;16.60;14.88;;;;;;;15.41;71.50;101620.22;3612410;39;20058;-66
2023/05/14 07:02:06;;;;;;;17.90;15.18;;;;;;;15.62;71.36;101617.88;3612385;39;20181;-65
2023/05/14 07:04:32;;;;;;;17.33;14.70;;;;;;;15.87;70.40;101616.16;3613449;39;20053;-65
2023/05/14 07:06:57;;;;;;;14.95;13.38;;;;;;;16.11;69.12;101618.94;3614576;39;20359;-65
2023/05/14 07:09:23;;;;;;;15.85;14.10;;;;;;;16.29;68.38;101636.59;3615226;39;20065;-65
2023/05/14 07:11:49;;;;;;;15.80;14.10;;;;;;;16.51;67.29;101613.31;3615106;39;21535;-65
2023/05/14 07:14:14;;;;;;;15.05;13.48;;;;;;;16.69;66.00;101620.09;3615367;39;20053;-65
2023/05/14 07:16:41;;;;;;;17.00;13.63;;;;;;;16.80;66.61;101620.16;3613899;39;20507;-65
2023/05/14 07:19:07;;;;;;;15.68;13.18;;;;;;;16.98;64.71;101614.34;3613563;39;20107;-64
2023/05/14 07:21:34;;;;;;;21.45;14.25;;;;;;;16.46;65.00;101505.09;3614332;39;20077;-64
2023/05/14 07:24:00;;;;;;;15.48;12.90;;;;;;;17.20;63.96;101622.56;3615739;39;20633;-64
2023/05/14 07:26:26;;;;;;;14.10;12.60;;;;;;;17.35;62.95;101624.09;3613902;39;20054;-65
2023/05/14 07:28:51;;;;;;;17.80;13.10;;;;;;;17.52;62.98;101621.91;3615033;39;20051;-65
2023/05/14 07:31:17;;;;;;;16.80;12.88;;;;;;;17.63;62.01;101624.63;3613189;39;20313;-66
2023/05/14 07:33:42;;;;;;;16.73;13.40;;;;;;;17.71;60.77;101619.47;3614581;39;20254;-65
2023/05/14 07:36:08;;;;;;;14.93;12.80;;;;;;;17.71;61.19;101614.03;3616978;39;20401;-65
2023/05/14 07:38:34;;;;;;;15.07;12.95;;;;;;;17.84;61.22;101624.84;3616265;39;20561;-65
2023/05/14 07:40:59;;;;;;;13.80;12.40;;;;;;;17.90;60.93;101626.19;3618773;39;20057;-66
2023/05/14 07:43:25;;;;;;;13.80;11.32;;;;;;;17.97;60.59;101636.47;3611379;39;20419;-66
2023/05/14 07:45:50;;;;;;;16.13;12.45;;;;;;;18.08;60.02;101641.06;3613459;39;20059;-66
2023/05/14 07:48:16;;;;;;;15.57;12.10;;;;;;;18.12;59.79;101620.75;3616960;39;20067;-64
2023/05/14 07:50:42;;;;;;;14.40;11.82;;;;;;;18.21;59.54;101624.59;3614841;39;20062;-64
2023/05/14 07:53:07;;;;;;;15.63;12.27;;;;;;;18.33;59.13;101632.63;3617290;39;20053;-65
2023/05/14 07:55:33;;;;;;;13.02;11.73;;;;;;;18.44;59.09;101625.44;3615431;39;20293;-64
2023/05/14 07:57:59;;;;;;;14.30;11.82;;;;;;;18.59;58.38;101623.31;3610873;39;20341;-64
2023/05/14 08:00:24;;;;;;;14.65;12.25;;;;;;;18.70;58.18;101613.22;3617679;39;20062;-64
2023/05/14 08:02:50;;;;;;;13.88;12.43;;;;;;;18.80;57.17;101613.34;3617813;39;20062;-64
2023/05/14 08:05:17;;;;;;;15.60;12.00;;;;;;;18.95;57.27;101611.19;3614542;39;20058;-64
2023/05/14 08:07:43;;;;;;;14.15;12.15;;;;;;;19.00;56.52;101600.78;3614934;39;20059;-65
2023/05/14 08:10:09;;;;;;;14.55;12.50;;;;;;;19.12;56.18;101607.88;3614297;39;20058;-65
2023/05/14 08:12:35;;;;;;;14.25;11.10;;;;;;;19.28;55.85;101606.56;3616594;39;20063;-65
2023/05/14 08:15:01;;;;;;;15.60;10.85;;;;;;;19.47;55.11;101612.16;3616121;39;20356;-65
2023/05/14 08:17:27;;;;;;;12.50;11.07;;;;;;;19.73;52.97;101609.03;3615562;39;20102;-66
2023/05/14 08:19:53;;;;;;;12.10;10.77;;;;;;;19.82;54.18;101606.41;3612364;39;20057;-65
2023/05/14 08:22:18;;;;;;;12.27;11.05;;;;;;;19.99;53.69;101610.34;3609105;39;20464;-65
2023/05/14 08:24:44;;;;;;;13.95;11.40;;;;;;;20.02;53.29;101615.53;3615030;39;20055;-65
2023/05/14 08:27:09;;;;;;;12.65;11.32;;;;;;;19.92;54.83;101612.75;3616529;39;20053;-64
2023/05/14 08:29:35;;;;;;;12.43;11.13;;;;;;;20.05;55.90;101612.53;3617270;39;20063;-65
2023/05/14 08:32:01;;;;;;;12.88;9.82;;;;;;;20.22;53.18;101612.88;3619731;39;20054;-65
2023/05/14 08:34:27;;;;;;;12.93;9.98;;;;;;;20.30;52.51;101613.06;3615822;39;20151;-66
2023/05/14 08:36:53;;;;;;;13.95;11.02;;;;;;;20.35;53.24;101608.03;3614154;39;20047;-65
2023/05/14 08:39:18;;;;;;;11.55;10.27;;;;;;;20.49;52.53;101613.09;3613907;39;20062;-64
2023/05/14 08:41:44;;;;;;;12.85;10.02;;;;;;;20.37;52.72;101595.09;3616377;39;20055;-64
2023/05/14 08:44:35;;;;;;;11.35;10.18;;;;;;;20.35;52.80;101608.03;3619266;39;20057;-64
2023/05/14 08:47:01;;;;;;;11.77;10.57;;;;;;;20.47;52.44;101595.97;3615085;39;20050;-65
2023/05/14 08:49:46;;;;;;;13.35;9.93;;;;;;;20.45;51.04;101592.50;3614214;39;20297;-65
2023/05/14 08:52:12;;;;;;;12.23;9.93;;;;;;;20.54;52.54;101590.84;3617033;39;20300;-65
2023/05/14 08:54:39;;;;;;;10.63;9.55;;;;;;;20.52;49.94;101591.00;3617726;39;20067;-66
2023/05/14 08:57:09;;;;;;;10.95;9.25;;;;;;;20.52;50.14;101588.28;3610541;39;20062;-65
2023/05/14 08:59:35;;;;;;;83.68;13.57;;;;;;;20.75;51.79;101590.75;3619546;39;20055;-65
2023/05/14 09:02:05;;;;;;;11.30;9.07;;;;;;;20.99;49.46;101585.69;3616114;39;20120;-65
2023/05/14 09:04:32;;;;;;;10.02;8.63;;;;;;;21.34;50.27;101584.22;3616458;39;20305;-66
2023/05/14 09:07:01;;;;;;;10.75;8.82;;;;;;;21.61;50.63;101586.22;3615789;39;20047;-65
2023/05/14 09:09:27;;;;;;;10.13;8.55;;;;;;;21.75;49.27;101593.09;3618584;39;20046;-65
2023/05/14 09:11:53;;;;;;;9.93;7.95;;;;;;;21.95;48.41;101583.81;3615989;39;20127;-65
2023/05/14 09:14:21;;;;;;;9.30;7.78;;;;;;;22.15;46.85;101579.09;3617293;39;20050;-65
2023/05/14 09:16:49;;;;;;;9.30;8.18;;;;;;;22.31;47.04;101566.66;3619498;39;20053;-65
2023/05/14 09:19:17;;;;;;;11.38;8.27;;;;;;;22.53;47.04;101570.84;3617303;39;20043;-65
2023/05/14 09:21:46;;;;;;;10.55;7.95;;;;;;;22.74;45.81;101571.41;3619165;39;20087;-65
2023/05/14 09:24:23;;;;;;;9.35;8.25;;;;;;;22.69;45.64;101554.56;3616647;39;20051;-66
2023/05/14 09:26:53;;;;;;;11.60;7.95;;;;;;;22.60;45.47;101517.97;3615837;39;20059;-65
2023/05/14 09:29:19;;;;;;;9.48;8.13;;;;;;;22.90;45.01;101557.84;3610684;39;20050;-66
2023/05/14 09:31:46;;;;;;;9.77;7.63;;;;;;;22.98;45.20;101548.00;3620706;39;20049;-66
2023/05/14 09:34:30;;;;;;;9.73;7.30;;;;;;;23.27;45.27;101565.03;3616603;39;20091;-66
2023/05/14 09:37:03;;;;;;;9.48;7.53;;;;;;;23.44;45.95;101557.78;3619332;39;20047;-66
2023/05/14 09:39:30;;;;;;;9.98;7.50;;;;;;;23.48;45.55;101544.59;3614493;39;20043;-65
2023/05/14 09:41:56;;;;;;;10.80;7.97;;;;;;;23.71;46.08;101556.78;3617459;39;20054;-66
2023/05/14 09:44:23;;;;;;;7.70;6.47;;;;;;;23.78;42.97;101562.47;3615359;39;20411;-65
2023/05/14 09:46:51;;;;;;;8.90;6.65;;;;;;;23.75;43.60;101547.19;3619118;39;20103;-67
2023/05/14 09:49:17;;;;;;;10.75;6.60;;;;;;;23.80;44.14;101561.28;3616836;39;20054;-64
2023/05/14 09:51:43;;;;;;;7.10;6.18;;;;;;;23.96;43.21;101554.16;3616571;39;20099;-66
2023/05/14 09:54:09;;;;;;;8.27;6.15;;;;;;;24.21;42.09;101552.38;3617348;39;20520;-66
2023/05/14 09:56:36;;;;;;;8.10;6.97;;;;;;;24.40;42.75;101559.47;3612487;39;20270;-65
2023/05/14 09:59:03;;;;;;;9.63;7.18;;;;;;;24.44;42.69;101555.41;3615171;39;20056;-66
2023/05/14 10:01:31;;;;;;;10.50;6.53;;;;;;;24.31;41.98;101509.97;3616523;39;20333;-65
2023/05/14 10:03:57;;;;;;;6.90;6.13;;;;;;;24.52;41.81;101530.69;3615882;39;20042;-68
2023/05/14 10:06:29;;;;;;;5.70;5.00;;;;;;;24.76;39.12;101558.19;3615002;39;20131;-66
2023/05/14 10:09:04;;;;;;;6.07;5.47;;;;;;;24.85;38.67;101548.06;3613856;39;20282;-65
2023/05/14 10:11:37;;;;;;;7.95;5.68;;;;;;;24.86;40.63;101543.44;3617893;39;20098;-66
2023/05/14 10:14:17;;;;;;;6.70;6.07;;;;;;;24.85;38.33;101530.72;3619872;39;20061;-66
2023/05/14 10:16:48;;;;;;;8.40;5.70;;;;;;;24.78;38.20;101487.41;3618927;39;20058;-66
2023/05/14 10:19:16;;;;;;;9.10;6.15;;;;;;;25.05;41.58;101534.84;3616006;39;20110;-65
2023/05/14 10:21:51;;;;;;;10.93;5.85;;;;;;;25.13;40.02;101547.78;3614983;39;20061;-65
2023/05/14 10:24:19;;;;;;;9.88;6.50;;;;;;;25.09;38.52;101535.38;3614673;39;20120;-66
2023/05/14 10:26:45;;;;;;;7.10;5.72;;;;;;;25.03;40.19;101531.41;3612731;39;20055;-68
2023/05/14 10:29:12;;;;;;;8.82;6.18;;;;;;;25.08;40.35;101534.47;3617371;39;20054;-66
2023/05/14 10:31:50;;;;;;;8.98;6.00;;;;;;;25.01;39.87;101539.81;3615416;39;20346;-67
2023/05/14 10:34:45;;;;;;;6.97;5.63;;;;;;;25.04;39.41;101524.88;3615068;39;20050;-65
2023/05/14 10:37:17;;;;;;;7.82;5.63;;;;;;;25.17;38.74;101530.72;3617291;39;20119;-65
2023/05/14 10:39:43;;;;;;;6.15;5.03;;;;;;;25.33;38.55;101532.59;3613807;39;20112;-65
2023/05/14 10:42:34;;;;;;;6.40;5.38;;;;;;;25.37;39.00;101522.09;3618703;39;20072;-65
2023/05/14 10:45:07;;;;;;;7.10;3.88;;;;;;;25.48;36.07;101524.50;3615428;39;20127;-66
2023/05/14 10:47:36;;;;;;;4.40;4.00;;;;;;;25.70;34.51;101525.66;3614816;39;20063;-65
2023/05/14 10:50:07;;;;;;;5.72;4.75;;;;;;;25.85;35.85;101526.66;3619067;39;20053;-65
2023/05/14 10:52:34;;;;;;;6.00;5.43;;;;;;;25.90;35.89;101523.34;3618073;39;20414;-65
2023/05/14 10:55:06;;;;;;;6.32;5.22;;;;;;;25.77;39.68;101523.03;3620469;39;20057;-65
2023/05/14 10:57:36;;;;;;;6.03;4.97;;;;;;;25.81;38.32;101519.78;3616097;39;20519;-66
2023/05/14 11:00:06;;;;;;;6.07;5.10;;;;;;;25.91;38.51;101519.56;3616376;39;20510;-65
2023/05/14 11:02:36;;;;;;;6.22;5.63;;;;;;;25.97;36.70;101510.56;3615750;39;20095;-65
2023/05/14 11:05:09;;;;;;;8.15;5.00;;;;;;;26.13;37.74;101506.88;3618668;39;20085;-65
2023/05/14 11:07:39;;;;;;;8.00;6.07;;;;;;;26.24;37.96;101508.38;3612302;39;21358;-66
2023/05/14 11:10:14;;;;;;;7.57;4.97;;;;;;;26.33;36.37;101508.16;3613611;39;20058;-64
2023/05/14 11:12:47;;;;;;;9.88;4.72;;;;;;;26.39;36.42;101509.34;3616116;39;20057;-64
2023/05/14 11:15:21;;;;;;;5.15;4.70;;;;;;;26.39;35.53;101501.91;3616035;39;20081;-65